Time;durP1;ratioP1;P1;durP2;ratioP2;P2;SDS_P1;SDS_P2;PMS_P1;PMS_P2;Temp;Humidity;BMP_temperature;BMP_pressure;BME280_temperature;BME280_humidity;BME280_pressure;Samples;Min_cycle;Max_cycle;Signal;HPM_P1;HPM_P2
2022/10/31 00:01:01;;;;;;;22.83;14.23;;;13.00;99.90;;;;;;5098908;28;20173;-77
2022/10/31 00:03:27;;;;;;;29.27;15.27;;;13.00;99.90;;;;;;5101192;28;20044;-76
2022/10/31 00:05:53;;;;;;;25.38;15.00;;;13.00;99.90;;;;;;5107610;28;20218;-81
2022/10/31 00:08:19;;;;;;;25.08;14.93;;;13.10;99.90;;;;;;5081995;28;20027;-80
2022/10/31 00:10:45;;;;;;;27.20;14.80;;;13.10;99.90;;;;;;5091111;28;20047;-76
2022/10/31 00:13:13;;;;;;;31.17;17.00;;;13.00;99.90;;;;;;5101761;28;20078;-78
2022/10/31 00:15:40;;;;;;;23.83;14.45;;;13.20;99.90;;;;;;5073682;28;20099;-78
2022/10/31 00:18:07;;;;;;;25.20;15.50;;;13.10;99.90;;;;;;5108083;28;20187;-80
2022/10/31 00:20:33;;;;;;;22.98;14.65;;;12.90;99.90;;;;;;5089437;28;20036;-79
2022/10/31 00:23:03;;;;;;;23.55;14.98;;;12.90;99.90;;;;;;5085732;28;20055;-82
2022/10/31 00:25:32;;;;;;;22.63;14.25;;;12.90;99.90;;;;;;5083762;28;20035;-78
2022/10/31 00:27:58;;;;;;;23.55;14.90;;;12.70;99.90;;;;;;5094021;28;20038;-80
2022/10/31 00:30:24;;;;;;;26.70;17.73;;;12.80;99.90;;;;;;5079948;28;20036;-77
2022/10/31 00:32:49;;;;;;;28.05;15.52;;;12.80;99.90;;;;;;5085150;28;20396;-79
2022/10/31 00:35:15;;;;;;;28.17;16.58;;;12.90;99.90;;;;;;5078729;28;20103;-80
2022/10/31 00:37:41;;;;;;;28.15;16.10;;;12.80;99.90;;;;;;5101942;28;20035;-76
2022/10/31 00:40:28;;;;;;;28.23;16.00;;;12.70;99.90;;;;;;5083438;28;20035;-78
2022/10/31 00:42:53;;;;;;;25.35;15.23;;;12.60;99.90;;;;;;5090758;28;20023;-78
2022/10/31 00:45:19;;;;;;;25.42;15.85;;;12.60;99.90;;;;;;5077503;28;20345;-78
2022/10/31 00:47:45;;;;;;;25.73;15.55;;;12.60;99.90;;;;;;5094618;28;20085;-83
2022/10/31 00:50:10;;;;;;;27.50;14.55;;;12.60;99.90;;;;;;5100097;28;20099;-78
2022/10/31 00:52:38;;;;;;;23.35;15.25;;;12.60;99.90;;;;;;5103385;28;20039;-79
2022/10/31 00:55:04;;;;;;;25.38;15.68;;;12.50;99.90;;;;;;5087763;27;20027;-77
2022/10/31 00:57:30;;;;;;;24.83;15.80;;;12.40;99.90;;;;;;5083643;28;20357;-77
2022/10/31 00:59:55;;;;;;;22.23;14.52;;;12.50;99.90;;;;;;5095241;28;20040;-79
2022/10/31 01:02:21;;;;;;;26.30;15.18;;;12.50;99.90;;;;;;5077682;28;20040;-78
2022/10/31 01:04:47;;;;;;;29.38;16.30;;;12.50;99.90;;;;;;5085079;28;20097;-79
2022/10/31 01:07:13;;;;;;;23.55;14.80;;;12.30;99.90;;;;;;5121285;28;20039;-78
2022/10/31 01:09:41;;;;;;;27.23;15.48;;;12.40;99.90;;;;;;5126678;27;20059;-78
2022/10/31 01:12:10;;;;;;;24.23;14.65;;;12.40;99.90;;;;;;5086243;28;20039;-78
2022/10/31 01:14:36;;;;;;;21.77;13.93;;;12.40;99.90;;;;;;5080577;28;20466;-78
2022/10/31 01:17:02;;;;;;;25.00;15.35;;;12.30;99.90;;;;;;5086368;28;20028;-79
2022/10/31 01:19:29;;;;;;;27.88;15.13;;;12.30;99.90;;;;;;5093339;28;20036;-78
2022/10/31 01:21:55;;;;;;;26.65;15.00;;;12.40;99.90;;;;;;5092143;28;20102;-80
2022/10/31 01:24:30;;;;;;;25.95;15.90;;;12.20;99.90;;;;;;5104127;28;20309;-77
2022/10/31 01:26:55;;;;;;;27.85;15.77;;;12.20;99.90;;;;;;5103689;28;20032;-80
2022/10/31 01:29:24;;;;;;;33.30;16.40;;;12.40;99.90;;;;;;5107434;28;20281;-80
2022/10/31 01:31:50;;;;;;;29.30;15.38;;;12.30;99.90;;;;;;5065975;28;20032;-78
2022/10/31 01:34:17;;;;;;;29.08;16.33;;;12.50;99.90;;;;;;5107009;27;20089;-79
2022/10/31 01:36:46;;;;;;;27.50;14.48;;;12.50;99.90;;;;;;5089499;28;20104;-78
2022/10/31 01:39:14;;;;;;;25.85;15.93;;;12.50;99.90;;;;;;5089207;28;20253;-80
2022/10/31 01:41:44;;;;;;;30.10;15.27;;;12.50;99.90;;;;;;5091352;28;20027;-80
2022/10/31 01:44:15;;;;;;;24.13;14.63;;;12.30;99.90;;;;;;5109342;27;20036;-79
2022/10/31 01:46:50;;;;;;;24.80;14.18;;;12.20;99.90;;;;;;5107725;28;20091;-76
2022/10/31 01:49:24;;;;;;;24.45;15.15;;;12.20;99.90;;;;;;5109841;28;20039;-80
2022/10/31 01:52:14;;;;;;;25.63;14.88;;;12.30;99.90;;;;;;5103934;28;20032;-81
2022/10/31 01:54:43;;;;;;;26.20;15.13;;;12.50;99.90;;;;;;5099309;28;20212;-79
2022/10/31 01:57:12;;;;;;;22.65;14.13;;;12.40;99.90;;;;;;5115313;28;20096;-77
2022/10/31 01:59:43;;;;;;;21.20;13.85;;;12.30;99.90;;;;;;5112503;28;20031;-78
2022/10/31 02:02:10;;;;;;;34.08;16.92;;;12.20;99.90;;;;;;5106002;28;20098;-78
2022/10/31 02:04:36;;;;;;;27.55;14.15;;;12.40;99.90;;;;;;5116762;27;20034;-77
2022/10/31 02:07:12;;;;;;;24.15;14.43;;;12.20;99.90;;;;;;5113156;28;20044;-81
2022/10/31 02:09:39;;;;;;;27.00;14.95;;;12.30;99.90;;;;;;5106162;28;20044;-77
2022/10/31 02:12:06;;;;;;;27.23;14.52;;;12.40;99.90;;;;;;5103094;28;20038;-78
2022/10/31 02:14:33;;;;;;;23.27;15.25;;;12.20;99.90;;;;;;5111859;27;20027;-78
2022/10/31 02:16:59;;;;;;;27.95;16.27;;;12.10;99.90;;;;;;5108988;27;20028;-78
2022/10/31 02:19:46;;;;;;;31.33;15.63;;;12.20;99.90;;;;;;5086751;28;20067;-79
2022/10/31 02:22:19;;;;;;;26.50;15.00;;;12.30;99.90;;;;;;5114722;28;20112;-81
2022/10/31 02:24:56;;;;;;;24.15;15.52;;;12.20;99.90;;;;;;5112226;28;20040;-81
2022/10/31 02:27:53;;;;;;;27.88;16.05;;;12.40;99.90;;;;;;5101298;28;20036;-80
2022/10/31 02:30:23;;;;;;;26.42;14.90;;;12.30;99.90;;;;;;5109476;28;20036;-77
2022/10/31 02:32:58;;;;;;;31.13;15.52;;;12.30;99.90;;;;;;5103189;28;20232;-80
2022/10/31 02:35:36;;;;;;;25.25;14.50;;;11.90;99.90;;;;;;5092615;27;20024;-78
2022/10/31 02:38:12;;;;;;;23.00;14.27;;;12.20;99.90;;;;;;5108802;28;20067;-77
2022/10/31 02:40:49;;;;;;;26.90;16.58;;;12.20;99.90;;;;;;5112227;28;20032;-78
2022/10/31 02:43:54;;;;;;;28.77;15.80;;;12.30;99.90;;;;;;5094341;28;20027;-80
2022/10/31 02:46:34;;;;;;;28.30;16.23;;;12.00;99.90;;;;;;5071760;28;20255;-77
2022/10/31 02:49:07;;;;;;;27.25;15.88;;;12.20;99.90;;;;;;5110138;28;20069;-77
2022/10/31 02:51:50;;;;;;;28.27;15.52;;;12.10;99.90;;;;;;5121361;28;20095;-79
2022/10/31 02:54:25;;;;;;;26.00;13.43;;;12.00;99.90;;;;;;5103343;28;20212;-79
2022/10/31 02:56:58;;;;;;;25.05;14.18;;;12.00;99.90;;;;;;5094693;28;20034;-78
2022/10/31 02:59:24;;;;;;;25.80;15.35;;;11.90;99.90;;;;;;5103134;28;20059;-81
2022/10/31 03:02:01;;;;;;;30.60;16.15;;;11.80;99.90;;;;;;5088731;28;20027;-80
2022/10/31 03:04:27;;;;;;;34.15;16.42;;;11.70;99.90;;;;;;5119102;28;20048;-84
2022/10/31 03:07:16;;;;;;;26.83;15.55;;;12.00;99.90;;;;;;5107030;28;20035;-80
2022/10/31 03:09:52;;;;;;;23.85;15.43;;;11.90;99.90;;;;;;5119370;28;20042;-78
2022/10/31 03:12:27;;;;;;;22.30;13.27;;;11.90;99.90;;;;;;5120935;28;20028;-79
2022/10/31 03:15:11;;;;;;;25.65;13.88;;;11.80;99.90;;;;;;5106463;28;20035;-78
2022/10/31 03:17:50;;;;;;;26.30;13.33;;;11.80;99.90;;;;;;5108245;28;20314;-79
2022/10/31 03:20:21;;;;;;;34.83;17.27;;;11.60;99.90;;;;;;5102148;28;20309;-79
2022/10/31 03:22:52;;;;;;;25.75;15.55;;;11.80;99.90;;;;;;5098768;28;20039;-79
2022/10/31 03:25:18;;;;;;;29.80;16.20;;;11.60;99.90;;;;;;5105128;28;20106;-78
2022/10/31 03:27:45;;;;;;;27.38;16.45;;;11.70;99.90;;;;;;5071064;28;20039;-76
2022/10/31 03:30:12;;;;;;;23.98;15.23;;;11.70;99.90;;;;;;5105674;28;20036;-77
2022/10/31 03:32:54;;;;;;;28.70;15.32;;;11.70;99.90;;;;;;5068563;28;20063;-81
2022/10/31 03:35:22;;;;;;;25.67;15.63;;;11.90;99.90;;;;;;5098683;28;20051;-81
2022/10/31 03:37:52;;;;;;;27.75;15.65;;;11.80;99.90;;;;;;5104234;28;20032;-82
2022/10/31 03:40:21;;;;;;;28.10;15.15;;;11.80;99.90;;;;;;5103680;28;20028;-78
2022/10/31 03:42:54;;;;;;;23.27;15.40;;;11.60;99.90;;;;;;5101695;28;20089;-78
2022/10/31 03:45:43;;;;;;;27.83;16.65;;;11.60;99.90;;;;;;5096605;28;20230;-80
2022/10/31 03:48:09;;;;;;;24.35;16.27;;;11.80;99.90;;;;;;5114994;28;20331;-76
2022/10/31 03:51:05;;;;;;;27.83;17.00;;;11.80;99.90;;;;;;5092822;28;20035;-75
2022/10/31 03:53:34;;;;;;;29.02;16.60;;;11.80;99.90;;;;;;5091649;28;20256;-76
2022/10/31 03:56:19;;;;;;;23.95;16.85;;;11.80;99.90;;;;;;5087932;28;20028;-77
2022/10/31 03:59:34;;;;;;;24.35;16.02;;;11.60;99.90;;;;;;5113527;28;20039;-78
2022/10/31 04:02:07;;;;;;;22.55;16.00;;;11.60;99.90;;;;;;5118407;27;20035;-76
2022/10/31 04:04:34;;;;;;;22.83;14.85;;;11.50;99.90;;;;;;5107175;28;20065;-79
2022/10/31 04:07:04;;;;;;;25.15;16.08;;;11.60;99.90;;;;;;5091667;28;20035;-78
2022/10/31 04:09:42;;;;;;;25.25;15.95;;;11.60;99.90;;;;;;5076875;28;20041;-81
2022/10/31 04:12:11;;;;;;;25.48;16.80;;;11.40;99.90;;;;;;5115068;28;20032;-77
2022/10/31 04:14:39;;;;;;;24.92;15.32;;;11.30;99.90;;;;;;5110238;28;20031;-78
2022/10/31 04:17:09;;;;;;;26.63;15.68;;;11.40;99.90;;;;;;5094331;28;20039;-78
2022/10/31 04:19:34;;;;;;;24.67;15.70;;;11.30;99.90;;;;;;5101609;28;20051;-78
2022/10/31 04:22:00;;;;;;;26.25;16.52;;;11.50;99.90;;;;;;5076958;28;20035;-80
2022/10/31 04:24:26;;;;;;;24.90;15.75;;;11.30;99.90;;;;;;5098735;28;20027;-79
2022/10/31 04:26:52;;;;;;;24.45;15.77;;;11.20;99.90;;;;;;5088951;28;20210;-76
2022/10/31 04:29:17;;;;;;;23.95;15.55;;;11.20;99.90;;;;;;5074640;28;20114;-75
2022/10/31 04:31:43;;;;;;;24.13;16.65;;;11.30;99.90;;;;;;5079818;28;20039;-77
2022/10/31 04:34:09;;;;;;;26.27;16.48;;;11.20;99.90;;;;;;5110431;28;20028;-79
2022/10/31 04:36:35;;;;;;;26.90;16.85;;;11.30;99.90;;;;;;5102661;27;20091;-80
2022/10/31 04:39:00;;;;;;;24.90;15.77;;;11.20;99.90;;;;;;5083628;28;20062;-78
2022/10/31 04:41:26;;;;;;;28.45;16.90;;;11.20;99.90;;;;;;5077242;28;20222;-79
2022/10/31 04:43:52;;;;;;;25.73;16.45;;;11.30;99.90;;;;;;5083670;28;20089;-75
2022/10/31 04:46:17;;;;;;;26.50;15.65;;;11.10;99.90;;;;;;5089935;27;20320;-78
2022/10/31 04:48:43;;;;;;;25.45;16.65;;;11.70;99.90;;;;;;5116471;28;20252;-78
2022/10/31 04:51:26;;;;;;;24.30;17.30;;;12.30;99.90;;;;;;5114633;28;20080;-83
2022/10/31 04:53:52;;;;;;;24.05;16.58;;;11.30;99.90;;;;;;5114116;28;20314;-74
2022/10/31 04:56:18;;;;;;;28.70;17.10;;;11.20;99.90;;;;;;5077493;28;20035;-75
2022/10/31 04:58:43;;;;;;;25.73;16.50;;;11.30;99.90;;;;;;5093683;28;20023;-78
2022/10/31 05:01:09;;;;;;;27.30;17.58;;;11.00;99.90;;;;;;5109006;28;20055;-76
2022/10/31 05:03:39;;;;;;;26.88;17.10;;;11.20;99.90;;;;;;5100148;28;20081;-74
2022/10/31 05:06:06;;;;;;;25.15;16.17;;;11.20;99.90;;;;;;5102089;28;20218;-77
2022/10/31 05:08:31;;;;;;;25.38;15.52;;;11.20;99.90;;;;;;5079046;28;20249;-79
2022/10/31 05:11:01;;;;;;;23.70;16.17;;;11.00;99.90;;;;;;5098082;28;20051;-79
2022/10/31 05:13:27;;;;;;;24.95;15.95;;;11.10;99.90;;;;;;5089981;28;20078;-76
2022/10/31 05:15:53;;;;;;;27.40;16.95;;;11.20;99.90;;;;;;5091725;28;20030;-76
2022/10/31 05:18:19;;;;;;;27.70;17.20;;;11.10;99.90;;;;;;5090551;28;20036;-78
2022/10/31 05:20:45;;;;;;;26.10;17.17;;;11.30;99.90;;;;;;5076685;28;20020;-80
2022/10/31 05:23:10;;;;;;;30.88;17.73;;;11.10;99.90;;;;;;5093567;28;20089;-75
2022/10/31 05:25:36;;;;;;;24.90;17.33;;;11.30;99.90;;;;;;5081986;28;20054;-79
2022/10/31 05:28:02;;;;;;;27.77;18.25;;;11.30;99.90;;;;;;5089619;28;20173;-76
2022/10/31 05:30:30;;;;;;;28.42;17.67;;;11.10;99.90;;;;;;5073674;28;20058;-77
2022/10/31 05:32:57;;;;;;;24.40;17.25;;;11.20;99.90;;;;;;5107960;28;20024;-75
2022/10/31 05:35:25;;;;;;;27.13;18.80;;;11.10;99.90;;;;;;5100622;28;20326;-80
2022/10/31 05:37:51;;;;;;;29.33;17.88;;;11.00;99.90;;;;;;5113761;28;20549;-76
2022/10/31 05:40:18;;;;;;;28.63;17.60;;;11.00;99.90;;;;;;5094756;28;20039;-79
2022/10/31 05:42:44;;;;;;;29.23;17.50;;;11.00;99.90;;;;;;5101826;28;20035;-77
2022/10/31 05:45:12;;;;;;;28.20;18.17;;;11.10;99.90;;;;;;5110390;28;20040;-74
2022/10/31 05:47:38;;;;;;;30.77;18.50;;;11.20;99.90;;;;;;5113752;28;20320;-79
2022/10/31 05:50:05;;;;;;;24.83;17.00;;;10.90;99.90;;;;;;5102496;28;20032;-78
2022/10/31 05:52:31;;;;;;;28.73;18.38;;;11.10;99.90;;;;;;5082066;28;20043;-79
2022/10/31 05:54:56;;;;;;;26.02;17.23;;;11.00;99.90;;;;;;5080414;28;20032;-76
2022/10/31 05:57:22;;;;;;;30.98;18.52;;;11.00;99.90;;;;;;5085109;28;20110;-76
2022/10/31 05:59:48;;;;;;;24.05;17.42;;;11.00;99.90;;;;;;5099145;28;20035;-81
2022/10/31 06:02:13;;;;;;;29.02;17.67;;;11.20;99.90;;;;;;5093687;28;20032;-76
2022/10/31 06:04:39;;;;;;;29.75;19.33;;;11.20;99.90;;;;;;5116061;28;20334;-78
2022/10/31 06:07:04;;;;;;;27.58;18.02;;;11.20;99.90;;;;;;5076524;28;20199;-79
2022/10/31 06:09:30;;;;;;;27.88;18.23;;;11.00;99.90;;;;;;5087106;28;20127;-77
2022/10/31 06:11:56;;;;;;;28.65;19.10;;;11.20;99.90;;;;;;5094284;28;20309;-78
2022/10/31 06:14:21;;;;;;;27.70;17.30;;;11.20;99.90;;;;;;5100278;28;20256;-74
2022/10/31 06:16:47;;;;;;;27.70;17.70;;;11.20;99.90;;;;;;5105897;28;20218;-79
2022/10/31 06:19:13;;;;;;;23.15;17.25;;;11.20;99.90;;;;;;5081969;27;20036;-79
2022/10/31 06:21:56;;;;;;;23.13;17.02;;;11.10;99.90;;;;;;5086708;28;20398;-77
2022/10/31 06:24:22;;;;;;;35.60;19.77;;;11.10;99.90;;;;;;5088927;28;20078;-80
2022/10/31 06:26:48;;;;;;;30.73;18.73;;;11.10;99.90;;;;;;5103899;28;20234;-75
2022/10/31 06:29:13;;;;;;;25.02;18.70;;;11.20;99.90;;;;;;5087103;28;20047;-77
2022/10/31 06:31:39;;;;;;;28.42;18.00;;;10.90;99.90;;;;;;5110846;28;20027;-80
2022/10/31 06:34:05;;;;;;;30.77;18.23;;;10.80;99.90;;;;;;5082674;28;20107;-76
2022/10/31 06:36:30;;;;;;;28.92;18.27;;;10.90;99.90;;;;;;5078779;28;20080;-82
2022/10/31 06:38:56;;;;;;;32.83;19.00;;;11.10;99.90;;;;;;5098801;28;20050;-76
2022/10/31 06:41:22;;;;;;;24.63;18.35;;;11.00;99.90;;;;;;5099381;28;20328;-76
2022/10/31 06:43:47;;;;;;;30.15;19.23;;;10.90;99.90;;;;;;5109596;28;20040;-81
2022/10/31 06:46:13;;;;;;;31.50;18.08;;;10.80;99.90;;;;;;5093978;28;20043;-81
2022/10/31 06:48:41;;;;;;;28.63;18.08;;;10.70;99.90;;;;;;5113266;28;20226;-77
2022/10/31 06:51:07;;;;;;;28.45;19.02;;;11.00;99.90;;;;;;5101212;28;20056;-80
2022/10/31 06:53:33;;;;;;;28.40;17.98;;;10.70;99.90;;;;;;5087657;28;20322;-79
2022/10/31 06:57:00;;;;;;;29.20;18.92;;;10.90;99.90;;;;;;5087369;28;20363;-80
2022/10/31 06:59:27;;;;;;;28.52;19.38;;;11.10;99.90;;;;;;5082984;28;20073;-76
2022/10/31 07:01:53;;;;;;;26.05;17.77;;;10.90;99.90;;;;;;5094220;28;20290;-78
2022/10/31 07:04:19;;;;;;;27.67;18.58;;;11.10;99.90;;;;;;5118980;27;20043;-77
2022/10/31 07:06:45;;;;;;;26.23;17.58;;;11.00;99.90;;;;;;5086020;28;20334;-78
2022/10/31 07:09:10;;;;;;;28.00;18.48;;;11.00;99.90;;;;;;5105333;28;20040;-79
2022/10/31 07:11:36;;;;;;;26.23;16.92;;;11.10;99.90;;;;;;5099568;28;20028;-76
2022/10/31 07:14:02;;;;;;;25.10;17.95;;;11.20;99.90;;;;;;5082922;28;20034;-79
2022/10/31 07:16:27;;;;;;;27.58;18.67;;;11.00;99.90;;;;;;5100963;28;20443;-77
2022/10/31 07:19:16;;;;;;;22.88;15.20;;;11.80;99.90;;;;;;5121235;28;20023;-79
2022/10/31 07:21:48;;;;;;;23.08;16.00;;;11.10;99.90;;;;;;5085588;27;20297;-77
2022/10/31 07:24:13;;;;;;;20.85;14.82;;;11.10;99.90;;;;;;5101357;27;20051;-77
2022/10/31 07:26:39;;;;;;;24.02;17.42;;;10.80;99.90;;;;;;5111922;28;20050;-77
2022/10/31 07:29:11;;;;;;;23.42;16.05;;;11.00;99.90;;;;;;5106737;28;20124;-75
2022/10/31 07:31:37;;;;;;;29.10;17.33;;;10.60;99.90;;;;;;5092990;28;20062;-78
2022/10/31 07:34:06;;;;;;;23.23;16.95;;;11.00;99.90;;;;;;5100541;28;20028;-75
2022/10/31 07:36:34;;;;;;;25.35;17.58;;;10.80;99.90;;;;;;5075934;28;20350;-78
2022/10/31 07:39:02;;;;;;;26.42;17.25;;;11.00;99.90;;;;;;5059913;28;20048;-79
2022/10/31 07:41:27;;;;;;;22.27;16.33;;;11.10;99.90;;;;;;5079136;27;20055;-78
2022/10/31 07:46:48;;;;;;;21.60;16.27;;;11.20;99.90;;;;;;5101492;28;20024;-78
2022/10/31 07:49:14;;;;;;;19.50;15.00;;;11.20;99.90;;;;;;5080153;28;20039;-77
2022/10/31 07:51:39;;;;;;;19.60;14.60;;;11.30;99.90;;;;;;5090071;28;20059;-77
2022/10/31 07:54:37;;;;;;;17.90;13.45;;;11.50;99.90;;;;;;5084700;28;20072;-77
2022/10/31 07:57:03;;;;;;;19.27;13.27;;;11.60;99.90;;;;;;5082561;28;20031;-77
2022/10/31 07:59:31;;;;;;;15.52;11.45;;;11.90;99.90;;;;;;5067596;28;20036;-78
2022/10/31 08:02:06;;;;;;;18.77;13.25;;;12.10;99.90;;;;;;5100265;28;20049;-76
2022/10/31 08:04:52;;;;;;;18.77;12.80;;;12.00;99.90;;;;;;5074736;28;20089;-77
2022/10/31 08:07:18;;;;;;;17.10;12.20;;;12.10;99.90;;;;;;5100971;28;20372;-76
2022/10/31 08:09:46;;;;;;;17.80;11.98;;;12.20;99.90;;;;;;5101456;28;20067;-76
2022/10/31 08:12:18;;;;;;;17.42;12.77;;;12.30;99.90;;;;;;5094654;28;20099;-79
2022/10/31 08:14:46;;;;;;;16.33;12.30;;;12.50;99.90;;;;;;5111446;28;20016;-75
2022/10/31 08:17:12;;;;;;;14.77;11.80;;;12.80;99.90;;;;;;5074916;28;20211;-76
2022/10/31 08:19:40;;;;;;;13.27;10.75;;;12.80;99.90;;;;;;5086800;28;20019;-74
2022/10/31 08:22:06;;;;;;;13.73;10.80;;;12.60;99.90;;;;;;5095198;27;20032;-79
2022/10/31 08:24:32;;;;;;;17.08;11.93;;;12.80;99.90;;;;;;5111975;27;20035;-78
2022/10/31 08:26:57;;;;;;;16.85;12.27;;;12.90;99.90;;;;;;5086743;27;20036;-80
2022/10/31 08:29:29;;;;;;;14.98;12.25;;;13.20;99.90;;;;;;5093880;28;20032;-77
2022/10/31 08:31:58;;;;;;;16.83;12.63;;;13.10;99.90;;;;;;5083171;28;20040;-76
2022/10/31 08:34:24;;;;;;;16.85;12.07;;;13.10;99.90;;;;;;5100228;28;20043;-76
2022/10/31 08:36:53;;;;;;;15.77;12.35;;;13.30;99.90;;;;;;5110962;27;20218;-80
2022/10/31 08:39:18;;;;;;;15.15;11.48;;;13.10;99.90;;;;;;5084016;28;20035;-77
2022/10/31 08:41:56;;;;;;;17.05;12.20;;;13.10;99.90;;;;;;5074148;28;20034;-78
2022/10/31 08:44:25;;;;;;;15.10;11.20;;;13.00;99.90;;;;;;5085761;28;20035;-78
2022/10/31 08:46:50;;;;;;;14.55;11.90;;;13.10;99.90;;;;;;5093994;28;20027;-81
2022/10/31 08:49:16;;;;;;;16.25;12.80;;;13.00;99.90;;;;;;5102004;28;20035;-75
2022/10/31 08:51:42;;;;;;;14.32;11.73;;;13.30;99.90;;;;;;5103558;28;20038;-79
2022/10/31 08:54:08;;;;;;;14.48;11.80;;;13.30;99.90;;;;;;5103401;28;20042;-81
2022/10/31 08:56:36;;;;;;;13.18;11.32;;;13.30;99.90;;;;;;5087178;28;20034;-81
2022/10/31 08:59:02;;;;;;;14.98;11.88;;;13.40;99.90;;;;;;5086568;28;20059;-80
2022/10/31 09:01:28;;;;;;;14.95;11.27;;;13.30;99.90;;;;;;5075124;28;20044;-77
2022/10/31 09:03:53;;;;;;;13.65;10.57;;;13.20;99.90;;;;;;5085812;28;20145;-77
2022/10/31 09:06:21;;;;;;;14.10;11.68;;;13.30;99.90;;;;;;5103130;28;20067;-81
2022/10/31 09:08:47;;;;;;;16.08;12.55;;;13.20;99.90;;;;;;5092147;28;20081;-78
2022/10/31 09:11:13;;;;;;;12.57;10.10;;;13.40;99.90;;;;;;5101988;28;20048;-80
2022/10/31 09:13:39;;;;;;;12.95;10.75;;;13.20;99.90;;;;;;5083092;28;20028;-78
2022/10/31 09:16:05;;;;;;;12.75;10.73;;;13.20;99.90;;;;;;5117008;28;20063;-76
2022/10/31 09:18:33;;;;;;;13.10;10.15;;;13.10;99.90;;;;;;5118148;28;20076;-79
2022/10/31 09:21:05;;;;;;;11.77;10.35;;;12.90;99.90;;;;;;5120241;28;20314;-81
2022/10/31 09:23:31;;;;;;;13.32;11.15;;;13.00;99.90;;;;;;5078158;28;20207;-76
2022/10/31 09:26:02;;;;;;;12.23;10.82;;;13.10;99.90;;;;;;5087506;28;20099;-76
2022/10/31 09:28:28;;;;;;;14.85;10.73;;;13.10;99.90;;;;;;5099331;28;20046;-79
2022/10/31 09:31:00;;;;;;;15.52;12.57;;;13.20;99.90;;;;;;5118775;28;20067;-78
2022/10/31 09:33:28;;;;;;;14.05;11.45;;;13.90;99.90;;;;;;5118040;28;20084;-80
2022/10/31 09:35:54;;;;;;;19.95;13.50;;;12.20;99.90;;;;;;5098636;28;20024;-75
2022/10/31 09:38:23;;;;;;;14.57;11.57;;;13.30;99.90;;;;;;5072753;28;20027;-77
2022/10/31 09:41:07;;;;;;;14.48;11.15;;;13.30;99.90;;;;;;5103690;28;20027;-79
2022/10/31 09:44:15;;;;;;;12.70;10.98;;;13.30;99.90;;;;;;5106257;28;20039;-78
2022/10/31 09:47:00;;;;;;;12.95;8.48;;;13.50;99.90;;;;;;5107308;28;20085;-76
2022/10/31 09:50:03;;;;;;;14.25;12.35;;;13.60;99.90;;;;;;5118903;28;20047;-79
2022/10/31 09:53:11;;;;;;;15.98;12.05;;;15.80;99.90;;;;;;5106536;28;20092;-78
2022/10/31 09:55:39;;;;;;;13.50;11.20;;;14.40;99.90;;;;;;5110943;27;20131;-79
2022/10/31 09:59:08;;;;;;;17.58;12.45;;;14.70;99.90;;;;;;5098523;28;20154;-77
2022/10/31 10:01:53;;;;;;;12.70;10.43;;;14.40;99.90;;;;;;5080098;28;20145;-79
2022/10/31 10:04:30;;;;;;;14.88;11.32;;;14.40;99.90;;;;;;5095229;28;20044;-80
2022/10/31 10:06:57;;;;;;;12.63;9.88;;;14.20;99.90;;;;;;5122618;28;20039;-77
2022/10/31 10:09:29;;;;;;;14.77;11.23;;;14.00;99.90;;;;;;5076437;28;20036;-77
2022/10/31 10:12:44;;;;;;;13.30;10.77;;;14.00;99.90;;;;;;5122535;28;20039;-78
2022/10/31 10:15:37;;;;;;;17.17;11.07;;;14.10;99.90;;;;;;5020808;28;20367;-79
2022/10/31 10:18:03;;;;;;;13.63;10.70;;;14.30;99.90;;;;;;5010038;28;20026;-78
2022/10/31 10:20:50;;;;;;;14.23;10.85;;;14.40;99.90;;;;;;5073945;28;20576;-80
2022/10/31 10:23:44;;;;;;;13.10;10.15;;;14.40;99.90;;;;;;5129108;27;20061;-76
2022/10/31 10:26:17;;;;;;;12.65;9.75;;;14.40;99.90;;;;;;5107052;28;20054;-77
2022/10/31 10:28:47;;;;;;;13.60;10.32;;;14.30;99.90;;;;;;5110068;28;20038;-78
2022/10/31 10:31:19;;;;;;;12.07;10.02;;;14.30;99.90;;;;;;5101651;28;20058;-76
2022/10/31 10:34:11;;;;;;;14.57;10.50;;;14.20;99.90;;;;;;5098085;28;20031;-76
2022/10/31 10:36:44;;;;;;;12.57;10.45;;;14.10;99.90;;;;;;5101070;28;20031;-78
2022/10/31 10:39:18;;;;;;;14.50;10.45;;;14.10;99.90;;;;;;5101113;28;20042;-80
2022/10/31 10:47:37;;;;;;;16.23;11.05;;;14.30;99.90;;;;;;5095839;28;20036;-81
2022/10/31 10:50:20;;;;;;;13.32;9.70;;;14.40;99.90;;;;;;5100365;28;20058;-77
2022/10/31 10:53:21;;;;;;;14.45;11.80;;;14.40;99.90;;;;;;5096395;28;20020;-74
2022/10/31 10:56:15;;;;;;;12.65;9.93;;;14.30;99.90;;;;;;5052827;28;20060;-79
2022/10/31 10:58:42;;;;;;;11.95;8.85;;;14.50;99.90;;;;;;5094490;28;20040;-75
2022/10/31 11:01:15;;;;;;;12.98;9.50;;;14.40;99.90;;;;;;5083635;28;20044;-73
2022/10/31 11:03:41;;;;;;;13.10;9.95;;;14.40;99.90;;;;;;5096748;28;20234;-76
2022/10/31 11:06:25;;;;;;;14.05;10.45;;;14.40;99.90;;;;;;5109188;28;20054;-77
2022/10/31 11:08:52;;;;;;;16.42;10.48;;;14.50;99.90;;;;;;5102857;28;20213;-75
2022/10/31 11:11:25;;;;;;;15.40;10.13;;;14.70;99.90;;;;;;5095774;28;20028;-74
2022/10/31 11:14:11;;;;;;;14.80;10.30;;;14.80;99.90;;;;;;5092178;28;20023;-83
2022/10/31 11:20:50;;;;;;;13.45;9.15;;;15.60;99.90;;;;;;5110921;28;20095;-84
2022/10/31 11:23:41;;;;;;;9.20;7.32;;;14.90;99.90;;;;;;4952801;29;20055;-81
2022/10/31 11:26:53;;;;;;;9.35;7.47;;;15.00;99.90;;;;;;4908008;29;20044;-81
2022/10/31 11:29:38;;;;;;;;;;;;;;;;;;;;;
2022/10/31 11:32:27;;;;;;;10.65;7.93;;;13.90;99.90;;;;;;4936671;29;20035;-81
2022/10/31 11:35:00;;;;;;;12.63;7.88;;;15.00;99.90;;;;;;4945085;29;20144;-81
2022/10/31 11:38:42;;;;;;;12.70;8.30;;;14.10;99.90;;;;;;4942057;29;20103;-81
2022/10/31 11:41:16;;;;;;;11.95;7.80;;;14.90;99.90;;;;;;4877177;29;20103;-80
2022/10/31 11:44:45;;;;;;;10.50;7.20;;;14.80;99.90;;;;;;4888898;29;20044;-82
2022/10/31 11:47:25;;;;;;;12.50;8.18;;;13.20;99.90;;;;;;4897500;29;20051;-81
2022/10/31 11:49:51;;;;;;;13.50;9.10;;;14.70;99.90;;;;;;4941715;29;20103;-81
2022/10/31 11:52:42;;;;;;;;;;;;;;;;;;;;;
2022/10/31 11:56:01;;;;;;;13.80;9.35;;;14.70;99.90;;;;;;4958584;29;20086;-81
2022/10/31 11:58:33;;;;;;;12.90;8.05;;;15.90;99.90;;;;;;4927679;29;20028;-82
2022/10/31 12:01:02;;;;;;;13.00;8.63;;;14.80;99.90;;;;;;4944072;29;20286;-83
2022/10/31 12:04:05;;;;;;;12.70;8.65;;;14.90;99.90;;;;;;4927887;29;20070;-82
2022/10/31 12:06:37;;;;;;;10.98;7.70;;;14.90;99.90;;;;;;4943359;29;20213;-82
2022/10/31 12:09:14;;;;;;;12.07;7.60;;;14.90;99.90;;;;;;4950916;28;20038;-82
2022/10/31 12:11:58;;;;;;;13.20;8.45;;;15.00;99.90;;;;;;4938121;29;20043;-82
2022/10/31 12:14:58;;;;;;;12.73;8.25;;;15.00;99.90;;;;;;4936352;29;20039;-82
2022/10/31 12:18:02;;;;;;;13.63;8.40;;;15.00;99.90;;;;;;4933451;29;20050;-81
2022/10/31 12:21:06;;;;;;;14.07;8.18;;;15.00;99.90;;;;;;4873299;29;20068;-81
2022/10/31 12:23:44;;;;;;;12.40;6.85;;;14.00;99.90;;;;;;4945681;29;20122;-80
2022/10/31 12:26:35;;;;;;;11.85;7.00;;;15.10;99.90;;;;;;4949414;28;20059;-81
2022/10/31 12:29:10;;;;;;;8.55;5.68;;;16.50;99.90;;;;;;4956569;28;20074;-81
2022/10/31 12:32:16;;;;;;;11.45;6.28;;;15.20;99.90;;;;;;4946345;29;20242;-78
2022/10/31 12:34:54;;;;;;;;;;;15.60;99.90;;;;;;4939606;28;20057;-83
2022/10/31 12:37:41;;;;;;;9.50;5.95;;;15.30;99.90;;;;;;4963913;28;19974;-81
2022/10/31 12:40:25;;;;;;;9.68;5.80;;;16.30;99.90;;;;;;4954178;28;20089;-82
2022/10/31 12:43:28;;;;;;;12.13;5.57;;;15.40;99.90;;;;;;4961438;28;20031;-83
2022/10/31 12:45:56;;;;;;;9.95;4.63;;;15.40;99.90;;;;;;4945503;28;20067;-81
2022/10/31 12:48:41;;;;;;;10.13;4.22;;;15.50;99.90;;;;;;4970224;28;20048;-79
2022/10/31 12:51:32;;;;;;;6.35;4.20;;;15.50;99.90;;;;;;4954258;28;20542;-81
2022/10/31 12:54:31;;;;;;;11.63;4.47;;;15.50;99.90;;;;;;4946935;28;20046;-81
2022/10/31 12:57:31;;;;;;;8.82;3.78;;;15.40;99.90;;;;;;4964875;28;20051;-77
2022/10/31 13:00:04;;;;;;;8.82;4.72;;;15.60;99.90;;;;;;4963956;28;20102;-80
2022/10/31 13:02:56;;;;;;;10.27;4.45;;;15.60;99.90;;;;;;4945765;29;20046;-80
2022/10/31 13:05:39;;;;;;;10.85;4.30;;;15.60;99.90;;;;;;4945616;29;20034;-79
2022/10/31 13:08:24;;;;;;;7.93;3.60;;;15.50;99.90;;;;;;4961856;29;20049;-80
2022/10/31 13:11:13;;;;;;;8.80;3.78;;;15.50;99.90;;;;;;4982374;28;20077;-81
2022/10/31 13:14:02;;;;;;;7.32;3.22;;;14.20;99.90;;;;;;4969100;28;20024;-81
2022/10/31 13:16:48;;;;;;;8.50;3.58;;;15.60;99.90;;;;;;4955546;28;20035;-75